Terminal Aerodrome Forecast
Issued by NWS

Home | Current Version | Previous Version | Text Only | Print | Product List | Glossary On
Versions: 1 2 3 4 5 6 7 8 9 10 11 12 13 14 15
000
FTUS44 KLIX 220531
TAFHUM
TAF
KHUM 220531Z 2206/2306 17012KT 5SM BR BKN010
      TEMPO 2206/2209 2SM BR BKN007
     FM220900 16007KT 1 1/2SM BR BKN007
     FM221500 15009KT P6SM BKN015
     FM221800 16012KT P6SM SCT020 BKN040
     FM230300 16006KT P6SM BKN015=

USA.gov is the U.S. government's official web portal to all federal, state and local government web resources and services.